Time;durP1;ratioP1;P1;durP2;ratioP2;P2;SDS_P1;SDS_P2;PMS_P1;PMS_P2;Temp;Humidity;BMP_temperature;BMP_pressure;BME280_temperature;BME280_humidity;BME280_pressure;Samples;Min_cycle;Max_cycle;Signal;HPM_P1;HPM_P2
2021/09/16 00:01:14;;;;;;;53.52;23.95;;;;;;;11.22;70.26;99802.85;1752171;80;21056;-73
2021/09/16 00:03:44;;;;;;;54.38;22.42;;;;;;;11.19;70.43;99806.25;1749580;80;21036;-72
2021/09/16 00:06:12;;;;;;;45.98;21.70;;;;;;;11.18;70.45;99813.70;1721849;82;21141;-75
2021/09/16 00:08:46;;;;;;;36.50;20.48;;;;;;;11.15;70.46;99812.96;1748684;81;20977;-72
2021/09/16 00:11:13;;;;;;;42.08;20.50;;;;;;;11.11;70.50;99815.27;1748424;80;21066;-72
2021/09/16 00:13:44;;;;;;;41.73;20.90;;;;;;;11.08;70.64;99807.08;1750589;81;21059;-74
2021/09/16 00:16:12;;;;;;;41.00;20.65;;;;;;;11.08;70.61;99813.41;1748786;82;21525;-72
2021/09/16 00:18:38;;;;;;;40.60;21.35;;;;;;;11.07;70.57;99807.63;1750151;82;21123;-73
2021/09/16 00:21:07;;;;;;;40.08;20.10;;;;;;;11.07;70.67;99806.25;1750628;81;21482;-74
2021/09/16 00:23:37;;;;;;;37.25;18.82;;;;;;;11.00;70.79;99807.84;1750367;81;21092;-72
2021/09/16 00:26:04;;;;;;;38.95;19.50;;;;;;;10.88;71.07;99805.67;1745537;82;21235;-71
2021/09/16 00:28:30;;;;;;;41.98;20.20;;;;;;;10.78;71.37;99818.57;1750901;82;20984;-74
2021/09/16 00:30:56;;;;;;;42.65;19.45;;;;;;;10.71;71.55;99819.59;1750540;82;20988;-74
2021/09/16 00:33:24;;;;;;;39.27;20.05;;;;;;;10.72;71.39;99814.32;1750522;82;21039;-72
2021/09/16 00:35:51;;;;;;;38.92;20.48;;;;;;;10.74;71.17;99812.63;1750294;82;21020;-73
2021/09/16 00:38:21;;;;;;;36.00;18.92;;;;;;;10.75;71.05;99819.79;1750355;81;21058;-71
2021/09/16 00:40:50;;;;;;;31.35;18.40;;;;;;;10.74;70.84;99816.20;1724079;82;20978;-72
2021/09/16 00:43:20;;;;;;;35.70;19.98;;;;;;;10.66;70.97;99817.76;1722716;82;21556;-73
2021/09/16 00:45:47;;;;;;;36.83;19.80;;;;;;;10.65;70.86;99816.70;1746924;80;21070;-71
2021/09/16 00:48:17;;;;;;;35.83;19.85;;;;;;;10.59;70.75;99824.30;1746506;81;21489;-72
2021/09/16 00:50:48;;;;;;;38.17;19.75;;;;;;;10.59;70.74;99824.30;1750724;81;21457;-71
2021/09/16 00:53:16;;;;;;;33.48;17.95;;;;;;;10.57;70.78;99823.78;1716520;82;21091;-71
2021/09/16 00:55:44;;;;;;;33.25;18.23;;;;;;;10.55;70.69;99823.28;1747845;82;22079;-70
2021/09/16 00:58:12;;;;;;;39.75;18.87;;;;;;;10.53;70.94;99820.84;1685687;82;21015;-72
2021/09/16 01:00:40;;;;;;;32.80;17.32;;;;;;;10.48;71.27;99822.34;1749397;80;21458;-71
2021/09/16 01:03:08;;;;;;;33.58;19.05;;;;;;;10.46;71.39;99822.62;1750642;81;21008;-71
2021/09/16 01:05:35;;;;;;;36.08;20.27;;;;;;;10.47;71.42;99822.89;1725159;82;21079;-71
2021/09/16 01:08:05;;;;;;;36.23;19.50;;;;;;;10.49;71.44;99826.73;1750433;82;21504;-72
2021/09/16 01:10:32;;;;;;;37.55;18.30;;;;;;;10.44;71.57;99826.83;1750828;82;21552;-70
2021/09/16 01:13:00;;;;;;;35.65;18.48;;;;;;;10.41;71.78;99831.56;1750783;82;21059;-70
2021/09/16 01:15:32;;;;;;;37.80;18.82;;;;;;;10.32;72.07;99828.17;1697703;82;21074;-72
2021/09/16 01:18:00;;;;;;;34.45;17.85;;;;;;;10.23;72.42;99825.92;1750762;80;21040;-71
2021/09/16 01:20:27;;;;;;;33.08;19.73;;;;;;;10.19;72.69;99824.34;1745923;82;21044;-72
2021/09/16 01:22:54;;;;;;;35.80;18.52;;;;;;;10.17;72.88;99823.83;1750680;82;21496;-69
2021/09/16 01:25:28;;;;;;;34.98;19.07;;;;;;;10.16;72.96;99818.08;1750345;81;21075;-72
2021/09/16 01:27:57;;;;;;;38.88;18.62;;;;;;;10.16;72.98;99818.08;1721012;82;20997;-71
2021/09/16 01:30:24;;;;;;;35.45;19.17;;;;;;;10.18;73.03;99819.97;1750439;80;21056;-70
2021/09/16 01:32:52;;;;;;;37.08;19.32;;;;;;;10.22;72.94;99811.88;1722004;82;21028;-71
2021/09/16 01:35:21;;;;;;;37.73;19.87;;;;;;;10.26;72.85;99808.77;1706720;82;21512;-69
2021/09/16 01:37:50;;;;;;;33.53;19.25;;;;;;;10.30;72.53;99806.20;1736532;82;21045;-69
2021/09/16 01:40:16;;;;;;;38.78;19.10;;;;;;;10.32;72.27;99801.21;1732396;81;21000;-70
2021/09/16 01:42:45;;;;;;;41.92;20.55;;;;;;;10.30;72.16;99799.33;1702067;81;21068;-71
2021/09/16 01:45:18;;;;;;;43.75;21.05;;;;;;;10.25;72.32;99800.81;1740589;81;21033;-72
2021/09/16 01:47:45;;;;;;;34.13;19.40;;;;;;;10.21;72.63;99802.00;1742952;81;21100;-73
2021/09/16 01:50:15;;;;;;;33.85;17.90;;;;;;;10.20;72.46;99805.89;1715817;82;21549;-72
2021/09/16 01:52:43;;;;;;;33.00;18.15;;;;;;;10.12;72.52;99800.54;1743315;82;21009;-72
2021/09/16 01:55:11;;;;;;;35.23;18.30;;;;;;;10.06;72.70;99812.25;1741475;81;21474;-72
2021/09/16 01:57:38;;;;;;;32.53;17.82;;;;;;;10.02;72.98;99803.52;1743576;81;21559;-72
2021/09/16 02:00:07;;;;;;;31.30;17.10;;;;;;;9.96;73.13;99807.76;1744543;81;21041;-71
2021/09/16 02:02:39;;;;;;;41.33;17.75;;;;;;;9.96;73.24;99809.13;1706162;82;21042;-72
2021/09/16 02:05:11;;;;;;;32.93;17.92;;;;;;;9.98;73.28;99807.45;1732406;81;21110;-70
2021/09/16 02:07:38;;;;;;;37.75;18.62;;;;;;;9.97;73.25;99810.78;1756323;81;21695;-73
2021/09/16 02:10:09;;;;;;;41.02;19.42;;;;;;;9.98;73.23;99802.77;1736220;81;21064;-71
2021/09/16 02:12:40;;;;;;;33.73;18.30;;;;;;;10.02;73.08;99809.02;1756462;81;21048;-71
2021/09/16 02:15:09;;;;;;;37.17;17.77;;;;;;;10.00;72.96;99809.92;1752029;81;21133;-72
2021/09/16 02:17:37;;;;;;;42.15;19.73;;;;;;;9.94;72.91;99811.95;1756629;81;20980;-73
2021/09/16 02:20:06;;;;;;;33.75;19.70;;;;;;;9.83;73.18;99811.35;1756448;81;21008;-71
2021/09/16 02:22:34;;;;;;;36.38;18.25;;;;;;;9.79;73.37;99807.60;1752414;81;20973;-71
2021/09/16 02:25:04;;;;;;;38.02;19.80;;;;;;;9.81;73.16;99809.49;1756317;81;21404;-71
2021/09/16 02:27:31;;;;;;;35.98;19.15;;;;;;;9.84;72.85;99811.63;1726526;82;20982;-73
2021/09/16 02:29:58;;;;;;;53.30;19.50;;;;;;;9.85;72.68;99804.43;1763179;81;21297;-73
2021/09/16 02:32:30;;;;;;;36.25;17.98;;;;;;;9.87;72.56;99809.63;1763801;81;21476;-73
2021/09/16 02:34:59;;;;;;;40.30;18.65;;;;;;;9.86;72.55;99806.05;1764581;80;20956;-72
2021/09/16 02:37:26;;;;;;;31.82;18.07;;;;;;;9.80;72.80;99808.66;1739895;81;21074;-73
2021/09/16 02:39:54;;;;;;;35.90;18.45;;;;;;;9.81;73.01;99808.11;1728352;82;21047;-73
2021/09/16 02:42:24;;;;;;;31.77;17.52;;;;;;;9.84;72.82;99804.74;1756339;81;21057;-70
2021/09/16 02:44:50;;;;;;;35.92;16.05;;;;;;;9.86;72.67;99803.84;1763958;80;21059;-71
2021/09/16 02:47:18;;;;;;;32.03;17.40;;;;;;;9.86;72.64;99807.98;1762992;80;21028;-72
2021/09/16 02:49:45;;;;;;;36.10;18.95;;;;;;;9.78;73.05;99805.95;1752322;81;21026;-71
2021/09/16 02:52:12;;;;;;;30.60;17.15;;;;;;;9.78;73.18;99810.08;1740158;82;21039;-70
2021/09/16 02:54:41;;;;;;;32.98;16.65;;;;;;;9.74;73.27;99809.33;1745705;81;20983;-72
2021/09/16 02:57:10;;;;;;;37.08;18.77;;;;;;;9.69;73.55;99814.14;1742829;82;21030;-70
2021/09/16 02:59:41;;;;;;;44.83;19.80;;;;;;;9.68;73.61;99809.19;1744127;82;20987;-74
2021/09/16 03:02:09;;;;;;;40.52;19.85;;;;;;;9.70;73.30;99806.95;1723273;82;20971;-72
2021/09/16 03:04:39;;;;;;;30.85;16.20;;;;;;;9.72;73.03;99812.94;1724396;82;21082;-71
2021/09/16 03:07:07;;;;;;;42.85;18.10;;;;;;;9.72;72.90;99809.39;1737861;82;21009;-72
2021/09/16 03:09:34;;;;;;;34.05;17.40;;;;;;;9.62;73.19;99800.80;1687982;82;21041;-72
2021/09/16 03:12:01;;;;;;;32.78;16.70;;;;;;;9.60;73.22;99803.03;1740153;82;21026;-73
2021/09/16 03:14:29;;;;;;;28.12;15.13;;;;;;;9.57;73.35;99798.15;1740796;82;21078;-73
2021/09/16 03:16:58;;;;;;;30.57;14.85;;;;;;;9.54;73.63;99798.73;1740714;82;21034;-71
2021/09/16 03:19:26;;;;;;;30.05;15.93;;;;;;;9.47;73.96;99795.84;1740529;82;21482;-72
2021/09/16 03:21:54;;;;;;;33.45;17.02;;;;;;;9.42;74.28;99788.24;1734541;82;21531;-72
2021/09/16 03:24:21;;;;;;;33.83;17.37;;;;;;;9.44;74.48;99792.89;1741205;82;21018;-71
2021/09/16 03:26:49;;;;;;;31.15;18.62;;;;;;;9.49;74.17;99785.91;1740197;82;21093;-72
2021/09/16 03:29:17;;;;;;;33.58;18.00;;;;;;;9.55;74.05;99794.33;1736138;81;21081;-71
2021/09/16 03:31:48;;;;;;;54.48;19.45;;;;;;;9.62;73.87;99791.16;1740520;82;21550;-71
2021/09/16 03:34:17;;;;;;;54.60;23.12;;;;;;;9.64;73.80;99792.23;1709133;82;21056;-74
2021/09/16 03:36:46;;;;;;;48.50;22.67;;;;;;;9.60;73.88;99790.66;1741552;82;20952;-73
2021/09/16 03:39:15;;;;;;;49.95;21.40;;;;;;;9.62;73.86;99782.33;1740850;82;21045;-72
2021/09/16 03:41:45;;;;;;;52.23;24.52;;;;;;;9.66;73.58;99777.03;1740166;82;21488;-72
2021/09/16 03:44:13;;;;;;;63.85;29.05;;;;;;;9.71;73.39;99776.10;1710870;82;21106;-73
2021/09/16 03:46:42;;;;;;;84.30;37.48;;;;;;;9.71;73.20;99776.92;1740003;82;21078;-72
2021/09/16 03:49:10;;;;;;;66.25;30.02;;;;;;;9.58;73.55;99779.13;1741219;81;33077;-72
2021/09/16 03:51:38;;;;;;;58.23;29.40;;;;;;;9.56;74.07;99784.12;1739605;82;20988;-73
2021/09/16 03:54:06;;;;;;;43.70;22.35;;;;;;;9.62;74.40;99782.91;1743711;82;21047;-71
2021/09/16 03:56:32;;;;;;;38.35;18.07;;;;;;;9.64;74.76;99786.73;1744927;81;21503;-72
2021/09/16 03:59:02;;;;;;;33.95;17.70;;;;;;;9.72;75.18;99803.89;1743164;82;21660;-72
2021/09/16 04:01:32;;;;;;;;;;;;;;;9.71;75.48;99820.13;1749803;81;21088;-71
2021/09/16 04:03:59;;;;;;;38.23;18.65;;;;;;;9.78;76.05;99838.98;1755303;81;20220;-71
2021/09/16 04:06:26;;;;;;;38.85;18.60;;;;;;;9.88;76.27;99827.75;1756261;81;21370;-71
2021/09/16 04:08:56;;;;;;;48.70;19.27;;;;;;;10.00;76.39;99832.73;1756572;81;21457;-71
2021/09/16 04:11:22;;;;;;;68.65;21.25;;;;;;;10.12;76.51;99832.78;1728119;81;21037;-73
2021/09/16 04:13:50;;;;;;;76.55;20.10;;;;;;;10.22;76.70;99830.59;1728034;81;21723;-72
2021/09/16 04:16:18;;;;;;;70.42;18.48;;;;;;;10.31;76.80;99833.44;1730094;81;21063;-70
2021/09/16 04:18:44;;;;;;;79.47;19.07;;;;;;;10.41;76.90;99822.73;1756660;80;21040;-71
2021/09/16 04:21:15;;;;;;;36.83;17.57;;;;;;;10.51;77.00;99825.05;1730897;82;21504;-69
2021/09/16 04:23:45;;;;;;;36.40;16.80;;;;;;;10.64;77.14;99832.99;1753395;81;21043;-70
2021/09/16 04:26:14;;;;;;;34.43;17.12;;;;;;;10.76;77.11;99834.63;1756021;81;21063;-70
2021/09/16 04:28:41;;;;;;;42.53;18.42;;;;;;;10.89;77.15;99838.44;1733615;81;20980;-70
2021/09/16 04:31:08;;;;;;;39.05;17.77;;;;;;;11.04;77.17;99843.30;1733899;81;21468;-72
2021/09/16 04:33:34;;;;;;;46.35;18.23;;;;;;;11.14;77.05;99851.30;1756525;81;21114;-71
2021/09/16 04:36:06;;;;;;;40.17;17.62;;;;;;;11.25;77.20;99844.14;1756655;81;21023;-71
2021/09/16 04:38:35;;;;;;;39.58;16.45;;;;;;;11.39;77.26;99854.53;1756743;81;21098;-71
2021/09/16 04:41:03;;;;;;;41.50;17.77;;;;;;;11.52;77.14;99848.66;1756514;81;21591;-71
2021/09/16 04:43:29;;;;;;;43.42;16.62;;;;;;;11.63;77.03;99846.98;1756568;81;21071;-72
2021/09/16 04:45:59;;;;;;;35.70;16.07;;;;;;;11.75;77.13;99848.58;1732083;81;21054;-72
2021/09/16 04:48:28;;;;;;;38.67;15.03;;;;;;;11.91;77.20;99846.17;1756139;81;21067;-71
2021/09/16 04:50:56;;;;;;;39.55;15.32;;;;;;;12.09;77.44;99843.48;1756866;81;21149;-71
2021/09/16 04:53:22;;;;;;;36.55;14.85;;;;;;;12.27;77.36;99851.78;1756621;81;21040;-74
2021/09/16 04:55:50;;;;;;;35.30;14.30;;;;;;;12.44;77.10;99848.78;1754984;81;21032;-71
2021/09/16 04:58:18;;;;;;;38.17;14.60;;;;;;;12.59;76.83;99842.77;1753016;80;21307;-70
2021/09/16 05:00:45;;;;;;;30.92;13.35;;;;;;;12.74;76.48;99843.42;1758996;80;21481;-71
2021/09/16 05:03:12;;;;;;;40.03;12.30;;;;;;;12.87;76.13;99840.22;1749887;80;21556;-70
2021/09/16 05:05:48;;;;;;;28.83;12.13;;;;;;;12.99;75.99;99844.52;1750257;80;21556;-72
2021/09/16 05:08:16;;;;;;;34.78;11.70;;;;;;;13.11;75.86;99843.84;1750694;81;21539;-69
2021/09/16 05:10:44;;;;;;;31.17;12.50;;;;;;;13.24;75.56;99846.72;1696362;82;21089;-70
2021/09/16 05:13:12;;;;;;;32.95;13.95;;;;;;;13.37;75.34;99842.92;1749992;82;21056;-71
2021/09/16 05:15:40;;;;;;;39.53;14.45;;;;;;;13.48;75.04;99837.85;1750650;81;20976;-69
2021/09/16 05:18:10;;;;;;;37.50;14.13;;;;;;;13.61;74.60;99839.38;1750378;81;21473;-71
2021/09/16 05:20:37;;;;;;;33.45;11.08;;;;;;;13.71;74.08;99841.78;1748759;82;21504;-71
2021/09/16 05:23:05;;;;;;;30.65;11.83;;;;;;;13.81;73.51;99839.20;1723443;82;20993;-71
2021/09/16 05:25:33;;;;;;;31.48;9.50;;;;;;;13.92;73.02;99845.14;1723635;82;21059;-71
2021/09/16 05:28:03;;;;;;;22.52;10.15;;;;;;;14.03;72.58;99844.19;1743691;81;21043;-70
2021/09/16 05:30:32;;;;;;;21.80;7.58;;;;;;;14.11;72.25;99836.39;1745927;82;21020;-70
2021/09/16 05:33:07;;;;;;;14.50;5.87;;;;;;;14.23;71.92;99837.61;1746013;81;21607;-70
2021/09/16 05:35:34;;;;;;;14.23;5.10;;;;;;;14.33;71.25;99841.37;1707882;82;21510;-72
2021/09/16 05:38:01;;;;;;;17.37;5.75;;;;;;;14.46;70.52;99839.49;1738405;82;21058;-71
2021/09/16 05:40:32;;;;;;;27.10;5.62;;;;;;;14.61;69.97;99837.23;1700374;82;21035;-72
2021/09/16 05:43:06;;;;;;;14.93;5.80;;;;;;;14.74;68.70;99843.63;1732649;82;21089;-71
2021/09/16 05:45:34;;;;;;;17.73;5.70;;;;;;;14.86;67.83;99845.67;1750350;82;21425;-71
2021/09/16 05:48:07;;;;;;;10.80;5.28;;;;;;;15.00;67.49;99832.89;1749716;81;21080;-71
2021/09/16 05:50:34;;;;;;;7.15;3.62;;;;;;;15.12;66.78;99837.66;1749911;81;21020;-72
2021/09/16 05:53:00;;;;;;;10.53;3.37;;;;;;;15.24;65.33;99831.89;1735795;82;21077;-71
2021/09/16 05:55:28;;;;;;;7.35;3.47;;;;;;;15.32;64.24;99835.14;1728104;82;21034;-71
2021/09/16 05:57:55;;;;;;;7.30;3.27;;;;;;;15.37;62.90;99839.68;1736999;82;21069;-70
2021/09/16 06:00:23;;;;;;;15.05;4.10;;;;;;;15.41;62.48;99834.48;1723705;82;21293;-71
2021/09/16 06:02:52;;;;;;;8.43;3.95;;;;;;;15.49;62.22;99839.67;1733425;81;21029;-70
2021/09/16 06:05:19;;;;;;;7.92;3.50;;;;;;;15.56;61.31;99827.99;1716232;82;21065;-72
2021/09/16 06:07:48;;;;;;;8.85;3.00;;;;;;;15.61;60.54;99834.70;1735530;82;21498;-72
2021/09/16 06:10:17;;;;;;;7.67;3.35;;;;;;;15.65;59.98;99833.44;1730837;81;21036;-71
2021/09/16 06:12:47;;;;;;;5.15;3.50;;;;;;;15.70;60.33;99832.64;1743631;81;21089;-70
2021/09/16 06:15:15;;;;;;;8.78;3.80;;;;;;;15.79;59.18;99840.04;1742976;81;21029;-70
2021/09/16 06:17:48;;;;;;;8.68;3.75;;;;;;;15.89;58.66;99841.53;1745356;81;21065;-71
2021/09/16 06:20:16;;;;;;;12.70;4.15;;;;;;;15.96;57.94;99833.42;1743330;81;21533;-70
2021/09/16 06:22:49;;;;;;;11.97;4.03;;;;;;;16.04;58.07;99838.08;1746985;81;20990;-70
2021/09/16 06:25:20;;;;;;;7.53;3.58;;;;;;;16.14;57.00;99837.35;1743864;81;21097;-71
2021/09/16 06:27:48;;;;;;;12.28;3.30;;;;;;;16.22;56.40;99837.00;1744219;81;20974;-71
2021/09/16 06:30:17;;;;;;;5.58;3.05;;;;;;;16.29;56.19;99840.80;1746818;81;21014;-71
2021/09/16 06:32:46;;;;;;;11.65;3.45;;;;;;;16.37;55.73;99842.41;1747195;81;21044;-70
2021/09/16 06:35:19;;;;;;;13.18;3.62;;;;;;;16.44;55.27;99841.23;1742233;81;21510;-72
2021/09/16 06:37:46;;;;;;;8.65;3.12;;;;;;;16.51;54.53;99842.81;1745570;81;21548;-72
2021/09/16 06:40:13;;;;;;;8.20;3.00;;;;;;;16.59;54.17;99845.81;1746592;81;21050;-70
2021/09/16 06:42:43;;;;;;;14.53;2.92;;;;;;;16.66;53.24;99846.84;1720754;81;21506;-71
2021/09/16 06:45:13;;;;;;;11.43;2.85;;;;;;;16.74;53.25;99847.02;1749074;81;21027;-71
2021/09/16 06:47:46;;;;;;;9.60;3.02;;;;;;;16.81;53.13;99846.41;1713309;81;21021;-71
2021/09/16 06:50:17;;;;;;;5.42;2.33;;;;;;;16.89;52.77;99846.83;1742631;80;21033;-70
2021/09/16 06:52:46;;;;;;;5.03;2.42;;;;;;;16.97;52.41;99852.03;1747196;81;21068;-70
2021/09/16 06:55:14;;;;;;;6.17;2.35;;;;;;;17.04;52.31;99852.23;1713327;81;21490;-71
2021/09/16 06:57:42;;;;;;;4.37;2.40;;;;;;;17.11;52.85;99846.86;1749643;81;22359;-71
2021/09/16 07:00:12;;;;;;;6.17;2.95;;;;;;;17.18;51.80;99846.24;1742588;81;20995;-70
2021/09/16 07:02:39;;;;;;;9.33;2.70;;;;;;;17.22;51.59;99851.91;1729134;81;21237;-69
2021/09/16 07:05:07;;;;;;;11.83;3.12;;;;;;;17.27;51.57;99845.50;1719549;82;20986;-71
2021/09/16 07:07:35;;;;;;;4.25;2.33;;;;;;;17.33;51.16;99850.20;1683140;82;20995;-69
2021/09/16 07:10:07;;;;;;;10.18;2.77;;;;;;;17.38;51.34;99850.55;1751868;81;21073;-69
2021/09/16 07:12:35;;;;;;;21.50;3.50;;;;;;;17.44;51.40;99850.48;1752475;81;20995;-70
2021/09/16 07:15:02;;;;;;;11.75;3.27;;;;;;;17.51;51.49;99853.47;1759328;80;21311;-70
2021/09/16 07:17:31;;;;;;;8.68;3.12;;;;;;;17.59;51.38;99855.83;1748419;81;21017;-71
2021/09/16 07:19:57;;;;;;;6.15;2.87;;;;;;;17.66;51.63;99865.55;1721822;81;21070;-70
2021/09/16 07:22:24;;;;;;;8.80;3.27;;;;;;;17.70;50.08;99866.44;1754295;80;21539;-70
2021/09/16 07:24:50;;;;;;;8.08;2.92;;;;;;;17.74;49.60;99866.73;1756357;80;21117;-72
2021/09/16 07:27:20;;;;;;;12.55;4.03;;;;;;;17.78;48.88;99866.02;1753775;80;21759;-70
2021/09/16 07:29:50;;;;;;;9.80;3.27;;;;;;;17.83;48.99;99862.95;1748820;81;21062;-71
2021/09/16 07:32:19;;;;;;;19.23;3.87;;;;;;;17.88;49.10;99857.92;1717567;81;21052;-70
2021/09/16 07:34:45;;;;;;;11.38;3.83;;;;;;;17.95;49.15;99858.67;1774568;80;20992;-69
2021/09/16 07:37:11;;;;;;;10.80;4.30;;;;;;;18.04;48.91;99860.45;1779356;80;20971;-70
2021/09/16 07:39:40;;;;;;;14.35;3.42;;;;;;;18.12;49.01;99863.05;1757897;80;21986;-73
2021/09/16 07:42:07;;;;;;;14.95;3.98;;;;;;;18.18;47.87;99856.64;1738935;81;21632;-71
2021/09/16 07:44:39;;;;;;;14.35;3.87;;;;;;;18.23;47.66;99851.36;1750661;81;21059;-71
2021/09/16 07:47:08;;;;;;;;;;;;;;;18.30;47.58;99859.07;1759040;81;21013;-69
2021/09/16 07:49:35;;;;;;;12.93;4.12;;;;;;;18.35;48.22;99858.78;1755548;80;20504;-71
2021/09/16 07:52:06;;;;;;;9.10;3.12;;;;;;;18.42;47.92;99858.95;1727899;82;21043;-71
2021/09/16 07:54:34;;;;;;;7.85;3.00;;;;;;;18.49;47.85;99863.27;1731262;82;21055;-69
2021/09/16 07:57:02;;;;;;;12.00;3.45;;;;;;;18.58;47.75;99857.47;1749044;82;20996;-70
2021/09/16 07:59:30;;;;;;;10.95;3.65;;;;;;;18.67;46.54;99857.84;1748917;82;20992;-72
2021/09/16 08:01:57;;;;;;;20.82;4.42;;;;;;;18.70;46.44;99859.89;1750471;80;21035;-70
2021/09/16 08:04:24;;;;;;;20.72;4.95;;;;;;;18.74;46.29;99851.02;1697825;81;21134;-71
2021/09/16 08:06:50;;;;;;;13.93;3.95;;;;;;;18.77;46.58;99853.64;1744124;82;21083;-71
2021/09/16 08:09:17;;;;;;;42.33;5.95;;;;;;;18.85;45.74;99855.42;1720588;82;21086;-71
2021/09/16 08:11:44;;;;;;;18.52;4.08;;;;;;;18.85;47.04;99854.81;1747682;82;21659;-69
2021/09/16 08:14:16;;;;;;;18.12;4.22;;;;;;;18.90;46.33;99852.91;1727432;81;21066;-70
2021/09/16 08:16:44;;;;;;;7.55;3.55;;;;;;;18.91;46.69;99859.52;1755904;81;21520;-71
2021/09/16 08:19:12;;;;;;;25.48;4.67;;;;;;;19.01;46.71;99863.69;1763861;81;21005;-71
2021/09/16 08:21:42;;;;;;;14.80;3.50;;;;;;;19.13;46.20;99857.73;1757195;81;21082;-71
2021/09/16 08:24:13;;;;;;;11.90;4.08;;;;;;;19.23;46.99;99861.31;1749605;81;21338;-71
2021/09/16 08:26:40;;;;;;;10.40;4.25;;;;;;;19.31;46.40;99867.25;1748489;81;21501;-71
2021/09/16 08:29:07;;;;;;;11.45;3.08;;;;;;;19.34;45.86;99864.31;1750272;81;21103;-71
2021/09/16 08:31:35;;;;;;;12.25;3.95;;;;;;;19.42;45.49;99865.23;1717518;82;21061;-70
2021/09/16 08:34:02;;;;;;;15.80;3.30;;;;;;;19.50;45.87;99857.19;1720974;82;21004;-72
2021/09/16 08:36:30;;;;;;;11.10;3.00;;;;;;;19.62;45.71;99861.00;1746416;82;21021;-69
2021/09/16 08:38:59;;;;;;;10.30;3.08;;;;;;;19.70;45.13;99857.91;1747097;81;21007;-72
2021/09/16 08:41:27;;;;;;;13.50;3.42;;;;;;;19.80;45.38;99853.70;1747475;81;21466;-72
2021/09/16 08:43:55;;;;;;;9.53;3.58;;;;;;;19.92;44.79;99858.86;1749952;82;21530;-70
2021/09/16 08:46:22;;;;;;;11.20;3.55;;;;;;;19.99;43.58;99856.77;1719976;82;21053;-72
2021/09/16 08:48:53;;;;;;;11.83;3.67;;;;;;;20.00;42.84;99845.78;1719976;81;21029;-70
2021/09/16 08:51:21;;;;;;;9.75;3.65;;;;;;;19.99;43.26;99849.77;1750578;81;21074;-71
2021/09/16 08:53:53;;;;;;;19.65;3.22;;;;;;;20.01;43.14;99855.80;1750097;82;21042;-72
2021/09/16 08:56:21;;;;;;;10.68;2.87;;;;;;;19.99;42.95;99850.59;1696809;82;21078;-71
2021/09/16 08:58:48;;;;;;;10.10;2.83;;;;;;;20.02;43.41;99850.41;1720990;82;21022;-71
2021/09/16 09:01:16;;;;;;;6.60;2.58;;;;;;;20.07;42.86;99852.91;1750264;82;21506;-70
2021/09/16 09:03:47;;;;;;;9.45;2.42;;;;;;;20.14;42.77;99855.00;1760710;80;21046;-70
2021/09/16 09:06:36;;;;;;;6.67;2.80;;;;;;;20.19;43.01;99857.48;1751098;80;21055;-70
2021/09/16 09:09:15;;;;;;;7.47;2.60;;;;;;;20.25;42.96;99853.77;1777482;80;20979;-70
2021/09/16 09:12:12;;;;;;;12.82;2.77;;;;;;;20.33;42.89;99844.28;1747168;82;20973;-70
2021/09/16 09:14:44;;;;;;;14.33;3.00;;;;;;;20.42;43.06;99841.20;1686344;84;21393;-70
2021/09/16 09:17:25;;;;;;;13.62;3.87;;;;;;;20.54;43.12;99840.13;1669704;85;21100;-70
2021/09/16 09:19:58;;;;;;;6.25;2.70;;;;;;;20.64;43.28;99847.85;1720180;81;21080;-69
2021/09/16 09:22:29;;;;;;;7.70;2.98;;;;;;;20.77;42.86;99849.82;1780797;80;21022;-71
2021/09/16 09:25:12;;;;;;;7.42;3.17;;;;;;;20.86;42.40;99846.72;1765114;80;21027;-71
2021/09/16 09:27:51;;;;;;;12.82;3.00;;;;;;;20.91;42.26;99844.95;1768621;80;21036;-71
2021/09/16 09:30:22;;;;;;;14.70;2.87;;;;;;;21.00;41.36;99853.70;1765781;80;21025;-70
2021/09/16 09:33:05;;;;;;;13.08;2.77;;;;;;;21.09;41.82;99850.56;1753887;81;21003;-70
2021/09/16 09:35:42;;;;;;;26.07;3.87;;;;;;;21.21;40.94;99850.88;1742300;80;21018;-72
2021/09/16 09:38:18;;;;;;;20.12;3.85;;;;;;;21.32;40.35;99856.02;1767305;80;21047;-70
2021/09/16 09:40:50;;;;;;;8.50;2.90;;;;;;;21.42;39.99;99848.89;1752072;81;20995;-71
2021/09/16 09:43:36;;;;;;;10.85;2.67;;;;;;;21.50;39.79;99844.95;1753606;81;21032;-72
2021/09/16 09:46:17;;;;;;;7.03;3.08;;;;;;;21.59;39.10;99839.02;1755274;81;21807;-72
2021/09/16 09:49:02;;;;;;;7.78;2.77;;;;;;;21.65;38.96;99835.24;1718552;81;21075;-71
2021/09/16 09:51:42;;;;;;;5.30;2.60;;;;;;;21.73;39.09;99826.30;1770194;80;21007;-70
2021/09/16 09:54:27;;;;;;;21.30;3.10;;;;;;;21.81;39.27;99831.38;1763116;81;21564;-71
2021/09/16 09:57:17;;;;;;;11.08;2.95;;;;;;;21.88;39.42;99823.03;1731679;82;21012;-71
2021/09/16 10:00:07;;;;;;;9.83;2.87;;;;;;;21.94;39.45;99822.86;1762360;81;21030;-70
2021/09/16 10:02:53;;;;;;;8.95;2.85;;;;;;;22.04;39.80;99826.92;1717471;82;21087;-70
2021/09/16 10:05:30;;;;;;;9.48;2.95;;;;;;;22.10;39.42;99819.76;1718141;82;21001;-70
2021/09/16 10:08:06;;;;;;;10.28;3.87;;;;;;;22.15;40.05;99823.37;1718308;82;21005;-70
2021/09/16 10:10:41;;;;;;;9.33;3.70;;;;;;;22.17;39.36;99820.98;1744007;82;21091;-71
2021/09/16 10:13:17;;;;;;;14.05;4.03;;;;;;;22.13;38.52;99816.16;1742880;82;21066;-70
2021/09/16 10:15:48;;;;;;;11.37;3.90;;;;;;;22.09;37.74;99816.73;1740989;81;21033;-72
2021/09/16 10:18:18;;;;;;;13.35;3.47;;;;;;;22.07;38.00;99818.33;1738846;81;21027;-70
2021/09/16 10:20:47;;;;;;;11.12;4.03;;;;;;;22.04;38.31;99810.09;1744577;81;21055;-71
2021/09/16 10:23:22;;;;;;;12.82;3.67;;;;;;;22.09;38.63;99813.92;1711902;82;21067;-70
2021/09/16 10:25:52;;;;;;;12.15;3.83;;;;;;;22.11;39.43;99815.75;1753954;81;21532;-73
2021/09/16 10:28:19;;;;;;;11.70;4.40;;;;;;;21.99;39.42;99819.69;1712991;82;21058;-71
2021/09/16 10:30:49;;;;;;;17.17;4.35;;;;;;;21.94;38.08;99816.46;1742316;81;21507;-69
2021/09/16 10:33:26;;;;;;;11.53;3.95;;;;;;;21.84;39.14;99808.16;1736684;81;21014;-73
2021/09/16 10:36:08;;;;;;;14.60;3.80;;;;;;;21.77;38.30;99813.10;1743486;81;21159;-69
2021/09/16 10:38:44;;;;;;;11.75;4.22;;;;;;;21.61;38.80;99814.22;1742425;81;21160;-69
2021/09/16 10:41:28;;;;;;;14.85;3.62;;;;;;;21.61;39.61;99810.02;1741352;81;21029;-70
2021/09/16 10:44:10;;;;;;;22.52;4.17;;;;;;;21.70;40.24;99806.84;1743837;81;21040;-74
2021/09/16 10:46:45;;;;;;;15.13;3.85;;;;;;;21.77;39.86;99808.31;1735657;81;21028;-70
2021/09/16 10:49:28;;;;;;;11.18;3.92;;;;;;;21.85;40.43;99799.36;1736703;81;21027;-70
2021/09/16 10:52:12;;;;;;;19.92;4.03;;;;;;;21.98;40.47;99800.45;1743142;81;21570;-69
2021/09/16 10:54:56;;;;;;;16.37;4.50;;;;;;;22.13;40.35;99802.13;1746378;81;20989;-69
2021/09/16 10:57:36;;;;;;;13.55;4.20;;;;;;;22.31;40.28;99797.22;1742038;81;21081;-70
2021/09/16 11:00:12;;;;;;;16.37;4.10;;;;;;;22.47;40.46;99796.05;1742447;81;21529;-72
2021/09/16 11:02:48;;;;;;;14.85;3.80;;;;;;;22.63;40.63;99804.76;1736568;81;21545;-70
2021/09/16 11:05:20;;;;;;;18.30;4.85;;;;;;;22.77;39.17;99796.98;1717258;83;21141;-73
2021/09/16 11:07:55;;;;;;;14.40;4.25;;;;;;;22.82;40.32;99797.41;1714639;83;21743;-68
2021/09/16 11:10:31;;;;;;;11.12;4.28;;;;;;;22.92;40.35;99797.81;1715714;82;21022;-69
2021/09/16 11:13:05;;;;;;;9.50;4.08;;;;;;;22.89;39.34;99799.42;1688336;83;21025;-69
2021/09/16 11:15:37;;;;;;;;;;;;;;;22.75;39.02;99791.77;1715202;83;21587;-70
2021/09/16 11:18:16;;;;;;;9.38;4.15;;;;;;;22.64;39.46;99795.16;1715478;82;20201;-69
2021/09/16 11:20:48;;;;;;;9.35;3.27;;;;;;;22.66;40.00;99788.52;1715059;82;21032;-71
2021/09/16 11:23:18;;;;;;;11.18;3.87;;;;;;;22.77;40.28;99785.75;1721489;82;21046;-70
2021/09/16 11:25:50;;;;;;;18.20;4.03;;;;;;;22.86;38.27;99786.16;1716170;82;21510;-70
2021/09/16 11:28:19;;;;;;;15.63;5.15;;;;;;;22.81;37.91;99781.73;1718548;82;21518;-71
2021/09/16 11:30:47;;;;;;;11.40;4.70;;;;;;;22.77;36.94;99786.56;1717819;83;21524;-70
2021/09/16 11:33:18;;;;;;;17.25;4.80;;;;;;;22.68;38.08;99782.72;1718594;82;21072;-70
2021/09/16 11:35:46;;;;;;;17.07;4.47;;;;;;;22.77;37.92;99786.56;1713799;82;21044;-72
2021/09/16 11:38:14;;;;;;;9.95;4.35;;;;;;;22.92;38.07;99778.15;1689087;83;21526;-71